sensor_id;sensor_type;location;lat;lon;timestamp;P1;durP1;ratioP1;P2;durP2;ratioP2
69970;SDS011;57301;50.328;8.542;2022-12-24T00:01:32;10.13;;;1.95;;
69970;SDS011;57301;50.328;8.542;2022-12-24T00:03:59;10.63;;;1.90;;
69970;SDS011;57301;50.328;8.542;2022-12-24T00:06:25;8.27;;;1.80;;
69970;SDS011;57301;50.328;8.542;2022-12-24T00:08:51;10.80;;;1.70;;
69970;SDS011;57301;50.328;8.542;2022-12-24T00:11:18;9.57;;;2.00;;
69970;SDS011;57301;50.328;8.542;2022-12-24T00:13:46;7.72;;;2.15;;
69970;SDS011;57301;50.328;8.542;2022-12-24T00:16:12;10.32;;;2.30;;
69970;SDS011;57301;50.328;8.542;2022-12-24T00:18:39;9.82;;;2.00;;
69970;SDS011;57301;50.328;8.542;2022-12-24T00:21:12;7.90;;;1.80;;
69970;SDS011;57301;50.328;8.542;2022-12-24T00:23:39;10.03;;;1.97;;
69970;SDS011;57301;50.328;8.542;2022-12-24T00:26:05;11.63;;;2.03;;
69970;SDS011;57301;50.328;8.542;2022-12-24T00:28:32;12.07;;;2.30;;
69970;SDS011;57301;50.328;8.542;2022-12-24T00:30:58;9.05;;;2.25;;
69970;SDS011;57301;50.328;8.542;2022-12-24T00:33:25;15.93;;;2.58;;
69970;SDS011;57301;50.328;8.542;2022-12-24T00:35:52;11.37;;;2.33;;
69970;SDS011;57301;50.328;8.542;2022-12-24T00:38:18;11.27;;;2.10;;
69970;SDS011;57301;50.328;8.542;2022-12-24T00:40:45;8.27;;;1.98;;
69970;SDS011;57301;50.328;8.542;2022-12-24T00:43:12;10.60;;;1.80;;
69970;SDS011;57301;50.328;8.542;2022-12-24T00:45:38;10.75;;;2.00;;
69970;SDS011;57301;50.328;8.542;2022-12-24T00:48:05;9.47;;;2.23;;
69970;SDS011;57301;50.328;8.542;2022-12-24T00:50:31;13.13;;;2.72;;
69970;SDS011;57301;50.328;8.542;2022-12-24T00:52:57;12.77;;;1.95;;
69970;SDS011;57301;50.328;8.542;2022-12-24T00:55:24;11.43;;;2.25;;
69970;SDS011;57301;50.328;8.542;2022-12-24T00:57:50;11.35;;;2.17;;
69970;SDS011;57301;50.328;8.542;2022-12-24T01:00:17;12.80;;;2.50;;
69970;SDS011;57301;50.328;8.542;2022-12-24T01:02:44;8.02;;;2.08;;
69970;SDS011;57301;50.328;8.542;2022-12-24T01:05:11;9.48;;;2.15;;
69970;SDS011;57301;50.328;8.542;2022-12-24T01:07:38;12.77;;;1.80;;
69970;SDS011;57301;50.328;8.542;2022-12-24T01:10:07;12.30;;;2.28;;
69970;SDS011;57301;50.328;8.542;2022-12-24T01:12:34;12.30;;;2.07;;
69970;SDS011;57301;50.328;8.542;2022-12-24T01:15:01;7.90;;;1.95;;
69970;SDS011;57301;50.328;8.542;2022-12-24T01:17:30;10.73;;;2.05;;
69970;SDS011;57301;50.328;8.542;2022-12-24T01:19:57;10.57;;;2.20;;
69970;SDS011;57301;50.328;8.542;2022-12-24T01:22:24;11.07;;;1.80;;
69970;SDS011;57301;50.328;8.542;2022-12-24T01:24:51;11.17;;;2.30;;
69970;SDS011;57301;50.328;8.542;2022-12-24T01:27:17;9.00;;;1.90;;
69970;SDS011;57301;50.328;8.542;2022-12-24T01:29:44;12.07;;;2.38;;
69970;SDS011;57301;50.328;8.542;2022-12-24T01:32:10;15.07;;;2.67;;
69970;SDS011;57301;50.328;8.542;2022-12-24T01:34:37;13.35;;;2.35;;
69970;SDS011;57301;50.328;8.542;2022-12-24T01:37:03;12.93;;;2.67;;
69970;SDS011;57301;50.328;8.542;2022-12-24T01:39:30;7.82;;;2.10;;
69970;SDS011;57301;50.328;8.542;2022-12-24T01:41:56;11.55;;;1.88;;
69970;SDS011;57301;50.328;8.542;2022-12-24T01:44:42;12.38;;;2.00;;
69970;SDS011;57301;50.328;8.542;2022-12-24T01:47:13;8.18;;;1.98;;
69970;SDS011;57301;50.328;8.542;2022-12-24T01:49:47;10.63;;;2.10;;
69970;SDS011;57301;50.328;8.542;2022-12-24T01:52:20;7.57;;;1.98;;
69970;SDS011;57301;50.328;8.542;2022-12-24T01:54:51;14.00;;;2.92;;
69970;SDS011;57301;50.328;8.542;2022-12-24T01:57:25;8.93;;;1.73;;
69970;SDS011;57301;50.328;8.542;2022-12-24T01:59:57;15.50;;;2.20;;
69970;SDS011;57301;50.328;8.542;2022-12-24T02:02:27;8.70;;;2.27;;
69970;SDS011;57301;50.328;8.542;2022-12-24T02:05:11;10.95;;;2.22;;
69970;SDS011;57301;50.328;8.542;2022-12-24T02:07:41;10.50;;;2.25;;
69970;SDS011;57301;50.328;8.542;2022-12-24T02:10:09;15.15;;;2.35;;
69970;SDS011;57301;50.328;8.542;2022-12-24T02:12:37;10.45;;;2.25;;
69970;SDS011;57301;50.328;8.542;2022-12-24T02:15:06;8.40;;;1.77;;
69970;SDS011;57301;50.328;8.542;2022-12-24T02:17:38;9.55;;;2.10;;
69970;SDS011;57301;50.328;8.542;2022-12-24T02:36:28;11.65;;;2.05;;
69970;SDS011;57301;50.328;8.542;2022-12-24T02:39:19;11.07;;;2.08;;
69970;SDS011;57301;50.328;8.542;2022-12-24T02:42:02;14.10;;;2.40;;
69970;SDS011;57301;50.328;8.542;2022-12-24T02:44:33;11.30;;;2.35;;
69970;SDS011;57301;50.328;8.542;2022-12-24T02:47:06;13.38;;;2.28;;
69970;SDS011;57301;50.328;8.542;2022-12-24T02:49:35;13.05;;;2.13;;
69970;SDS011;57301;50.328;8.542;2022-12-24T02:52:02;9.80;;;2.30;;
69970;SDS011;57301;50.328;8.542;2022-12-24T02:54:29;12.57;;;2.30;;
69970;SDS011;57301;50.328;8.542;2022-12-24T02:57:07;17.20;;;3.17;;
69970;SDS011;57301;50.328;8.542;2022-12-24T03:10:51;13.02;;;2.50;;
69970;SDS011;57301;50.328;8.542;2022-12-24T03:13:23;9.50;;;3.38;;
69970;SDS011;57301;50.328;8.542;2022-12-24T03:15:51;10.55;;;2.35;;
69970;SDS011;57301;50.328;8.542;2022-12-24T03:18:27;12.23;;;2.40;;
69970;SDS011;57301;50.328;8.542;2022-12-24T03:21:06;10.90;;;2.23;;
69970;SDS011;57301;50.328;8.542;2022-12-24T03:23:39;8.30;;;2.13;;
69970;SDS011;57301;50.328;8.542;2022-12-24T03:26:06;8.85;;;2.38;;
69970;SDS011;57301;50.328;8.542;2022-12-24T03:28:38;13.02;;;3.10;;
69970;SDS011;57301;50.328;8.542;2022-12-24T03:31:06;10.82;;;2.53;;
69970;SDS011;57301;50.328;8.542;2022-12-24T03:33:33;13.50;;;2.47;;
69970;SDS011;57301;50.328;8.542;2022-12-24T03:36:00;12.75;;;2.83;;
69970;SDS011;57301;50.328;8.542;2022-12-24T03:38:27;11.98;;;2.78;;
69970;SDS011;57301;50.328;8.542;2022-12-24T03:40:53;10.57;;;2.75;;
69970;SDS011;57301;50.328;8.542;2022-12-24T03:43:20;8.75;;;2.33;;
69970;SDS011;57301;50.328;8.542;2022-12-24T03:45:46;13.57;;;2.27;;
69970;SDS011;57301;50.328;8.542;2022-12-24T03:48:13;11.15;;;2.40;;
69970;SDS011;57301;50.328;8.542;2022-12-24T03:50:40;10.82;;;2.47;;
69970;SDS011;57301;50.328;8.542;2022-12-24T03:53:06;7.95;;;2.40;;
69970;SDS011;57301;50.328;8.542;2022-12-24T03:55:33;13.43;;;2.25;;
69970;SDS011;57301;50.328;8.542;2022-12-24T03:57:59;11.17;;;2.10;;
69970;SDS011;57301;50.328;8.542;2022-12-24T04:00:25;13.60;;;3.25;;
69970;SDS011;57301;50.328;8.542;2022-12-24T04:02:52;8.45;;;2.22;;
69970;SDS011;57301;50.328;8.542;2022-12-24T04:05:19;9.80;;;2.25;;
69970;SDS011;57301;50.328;8.542;2022-12-24T04:07:46;10.10;;;2.13;;
69970;SDS011;57301;50.328;8.542;2022-12-24T04:10:13;13.40;;;2.47;;
69970;SDS011;57301;50.328;8.542;2022-12-24T04:12:41;15.32;;;3.22;;
69970;SDS011;57301;50.328;8.542;2022-12-24T04:15:08;11.02;;;2.60;;
69970;SDS011;57301;50.328;8.542;2022-12-24T04:17:35;14.48;;;2.58;;
69970;SDS011;57301;50.328;8.542;2022-12-24T04:20:02;17.50;;;3.33;;
69970;SDS011;57301;50.328;8.542;2022-12-24T04:22:28;12.20;;;2.80;;
69970;SDS011;57301;50.328;8.542;2022-12-24T04:24:55;9.45;;;2.20;;
69970;SDS011;57301;50.328;8.542;2022-12-24T04:27:21;9.95;;;2.13;;
69970;SDS011;57301;50.328;8.542;2022-12-24T04:29:55;8.77;;;2.28;;
69970;SDS011;57301;50.328;8.542;2022-12-24T04:32:22;11.30;;;2.63;;
69970;SDS011;57301;50.328;8.542;2022-12-24T04:34:51;7.07;;;2.17;;
69970;SDS011;57301;50.328;8.542;2022-12-24T04:37:18;8.18;;;2.10;;
69970;SDS011;57301;50.328;8.542;2022-12-24T04:39:44;11.13;;;2.97;;
69970;SDS011;57301;50.328;8.542;2022-12-24T04:42:10;10.40;;;2.42;;
69970;SDS011;57301;50.328;8.542;2022-12-24T04:44:37;8.93;;;2.00;;
69970;SDS011;57301;50.328;8.542;2022-12-24T04:47:03;12.57;;;2.47;;
69970;SDS011;57301;50.328;8.542;2022-12-24T04:49:30;8.75;;;2.17;;
69970;SDS011;57301;50.328;8.542;2022-12-24T04:51:56;10.75;;;2.45;;
69970;SDS011;57301;50.328;8.542;2022-12-24T04:54:22;12.52;;;2.83;;
69970;SDS011;57301;50.328;8.542;2022-12-24T04:56:49;10.30;;;2.30;;
69970;SDS011;57301;50.328;8.542;2022-12-24T04:59:15;6.50;;;1.70;;
69970;SDS011;57301;50.328;8.542;2022-12-24T05:01:42;7.93;;;1.75;;
69970;SDS011;57301;50.328;8.542;2022-12-24T05:04:08;8.93;;;1.98;;
69970;SDS011;57301;50.328;8.542;2022-12-24T05:06:36;9.50;;;1.98;;
69970;SDS011;57301;50.328;8.542;2022-12-24T05:09:02;11.73;;;2.20;;
69970;SDS011;57301;50.328;8.542;2022-12-24T05:11:29;7.33;;;1.80;;
69970;SDS011;57301;50.328;8.542;2022-12-24T05:13:56;9.85;;;2.38;;
69970;SDS011;57301;50.328;8.542;2022-12-24T05:16:23;10.25;;;1.95;;
69970;SDS011;57301;50.328;8.542;2022-12-24T05:18:50;10.43;;;1.90;;
69970;SDS011;57301;50.328;8.542;2022-12-24T05:21:18;11.88;;;2.92;;
69970;SDS011;57301;50.328;8.542;2022-12-24T05:23:47;11.10;;;2.43;;
69970;SDS011;57301;50.328;8.542;2022-12-24T05:29:13;14.43;;;4.43;;
69970;SDS011;57301;50.328;8.542;2022-12-24T05:31:40;19.15;;;6.50;;
69970;SDS011;57301;50.328;8.542;2022-12-24T05:34:08;16.38;;;5.75;;
69970;SDS011;57301;50.328;8.542;2022-12-24T05:36:36;10.60;;;2.57;;
69970;SDS011;57301;50.328;8.542;2022-12-24T05:39:02;12.75;;;2.50;;
69970;SDS011;57301;50.328;8.542;2022-12-24T05:41:35;13.63;;;2.40;;
69970;SDS011;57301;50.328;8.542;2022-12-24T05:44:01;10.85;;;2.50;;
69970;SDS011;57301;50.328;8.542;2022-12-24T05:46:28;14.40;;;3.00;;
69970;SDS011;57301;50.328;8.542;2022-12-24T05:48:54;16.07;;;5.13;;
69970;SDS011;57301;50.328;8.542;2022-12-24T05:51:21;12.13;;;3.42;;
69970;SDS011;57301;50.328;8.542;2022-12-24T05:53:48;16.10;;;3.30;;
69970;SDS011;57301;50.328;8.542;2022-12-24T05:56:20;9.05;;;2.58;;
69970;SDS011;57301;50.328;8.542;2022-12-24T05:58:48;12.95;;;2.88;;
69970;SDS011;57301;50.328;8.542;2022-12-24T06:01:15;18.40;;;3.03;;
69970;SDS011;57301;50.328;8.542;2022-12-24T06:03:42;8.27;;;2.78;;
69970;SDS011;57301;50.328;8.542;2022-12-24T06:06:09;11.02;;;2.67;;
69970;SDS011;57301;50.328;8.542;2022-12-24T06:08:38;9.95;;;2.45;;
69970;SDS011;57301;50.328;8.542;2022-12-24T06:11:06;14.73;;;2.80;;
69970;SDS011;57301;50.328;8.542;2022-12-24T06:13:36;14.03;;;2.60;;
69970;SDS011;57301;50.328;8.542;2022-12-24T06:16:04;12.15;;;2.60;;
69970;SDS011;57301;50.328;8.542;2022-12-24T06:18:32;8.05;;;2.30;;
69970;SDS011;57301;50.328;8.542;2022-12-24T06:21:01;13.57;;;2.35;;
69970;SDS011;57301;50.328;8.542;2022-12-24T06:23:29;15.52;;;2.75;;
69970;SDS011;57301;50.328;8.542;2022-12-24T06:25:58;12.57;;;2.53;;
69970;SDS011;57301;50.328;8.542;2022-12-24T06:28:29;16.83;;;2.92;;
69970;SDS011;57301;50.328;8.542;2022-12-24T06:30:57;10.20;;;2.53;;
69970;SDS011;57301;50.328;8.542;2022-12-24T06:33:29;15.98;;;2.83;;
69970;SDS011;57301;50.328;8.542;2022-12-24T06:35:59;13.52;;;3.00;;
69970;SDS011;57301;50.328;8.542;2022-12-24T06:38:28;10.03;;;2.30;;
69970;SDS011;57301;50.328;8.542;2022-12-24T06:40:55;13.88;;;2.95;;
69970;SDS011;57301;50.328;8.542;2022-12-24T06:43:22;13.90;;;2.42;;
69970;SDS011;57301;50.328;8.542;2022-12-24T06:45:48;10.52;;;2.63;;
69970;SDS011;57301;50.328;8.542;2022-12-24T06:48:15;14.57;;;2.88;;
69970;SDS011;57301;50.328;8.542;2022-12-24T06:50:42;15.20;;;3.27;;
69970;SDS011;57301;50.328;8.542;2022-12-24T06:53:08;13.40;;;2.85;;
69970;SDS011;57301;50.328;8.542;2022-12-24T06:55:35;11.18;;;2.70;;
69970;SDS011;57301;50.328;8.542;2022-12-24T06:58:02;13.35;;;2.70;;
69970;SDS011;57301;50.328;8.542;2022-12-24T07:00:29;11.75;;;2.47;;
69970;SDS011;57301;50.328;8.542;2022-12-24T07:02:55;11.20;;;2.53;;
69970;SDS011;57301;50.328;8.542;2022-12-24T07:05:22;11.02;;;2.28;;
69970;SDS011;57301;50.328;8.542;2022-12-24T07:07:48;15.55;;;3.70;;
69970;SDS011;57301;50.328;8.542;2022-12-24T07:10:15;18.55;;;4.25;;
69970;SDS011;57301;50.328;8.542;2022-12-24T07:12:44;15.88;;;3.88;;
69970;SDS011;57301;50.328;8.542;2022-12-24T07:15:11;14.10;;;3.37;;
69970;SDS011;57301;50.328;8.542;2022-12-24T07:17:37;13.43;;;2.85;;
69970;SDS011;57301;50.328;8.542;2022-12-24T07:20:05;17.77;;;4.07;;
69970;SDS011;57301;50.328;8.542;2022-12-24T07:22:32;15.32;;;2.95;;
69970;SDS011;57301;50.328;8.542;2022-12-24T07:24:59;11.57;;;3.33;;
69970;SDS011;57301;50.328;8.542;2022-12-24T07:27:25;10.33;;;2.57;;
69970;SDS011;57301;50.328;8.542;2022-12-24T07:29:52;19.85;;;3.70;;
69970;SDS011;57301;50.328;8.542;2022-12-24T07:32:19;13.55;;;3.97;;
69970;SDS011;57301;50.328;8.542;2022-12-24T07:34:46;17.15;;;4.35;;
69970;SDS011;57301;50.328;8.542;2022-12-24T07:37:12;18.42;;;6.32;;
69970;SDS011;57301;50.328;8.542;2022-12-24T07:39:39;16.83;;;5.00;;
69970;SDS011;57301;50.328;8.542;2022-12-24T07:42:06;18.55;;;4.55;;
69970;SDS011;57301;50.328;8.542;2022-12-24T07:44:33;17.05;;;5.25;;
69970;SDS011;57301;50.328;8.542;2022-12-24T07:47:00;20.90;;;4.65;;
69970;SDS011;57301;50.328;8.542;2022-12-24T07:49:27;11.93;;;3.85;;
69970;SDS011;57301;50.328;8.542;2022-12-24T07:51:54;12.70;;;3.70;;
69970;SDS011;57301;50.328;8.542;2022-12-24T07:54:20;13.20;;;3.95;;
69970;SDS011;57301;50.328;8.542;2022-12-24T07:56:47;16.25;;;4.38;;
69970;SDS011;57301;50.328;8.542;2022-12-24T07:59:13;18.17;;;5.10;;
69970;SDS011;57301;50.328;8.542;2022-12-24T08:01:41;14.38;;;3.30;;
69970;SDS011;57301;50.328;8.542;2022-12-24T08:04:07;16.20;;;3.67;;
69970;SDS011;57301;50.328;8.542;2022-12-24T08:06:34;17.00;;;4.65;;
69970;SDS011;57301;50.328;8.542;2022-12-24T08:09:00;32.63;;;7.43;;
69970;SDS011;57301;50.328;8.542;2022-12-24T08:11:27;20.77;;;5.07;;
69970;SDS011;57301;50.328;8.542;2022-12-24T08:13:54;17.98;;;4.40;;
69970;SDS011;57301;50.328;8.542;2022-12-24T08:16:20;19.23;;;4.10;;
69970;SDS011;57301;50.328;8.542;2022-12-24T08:18:47;19.65;;;3.58;;
69970;SDS011;57301;50.328;8.542;2022-12-24T08:21:14;15.60;;;3.60;;
69970;SDS011;57301;50.328;8.542;2022-12-24T08:23:40;26.73;;;9.50;;
69970;SDS011;57301;50.328;8.542;2022-12-24T08:26:07;18.17;;;4.47;;
69970;SDS011;57301;50.328;8.542;2022-12-24T08:28:35;16.67;;;4.33;;
69970;SDS011;57301;50.328;8.542;2022-12-24T08:31:02;18.63;;;4.35;;
69970;SDS011;57301;50.328;8.542;2022-12-24T08:33:29;9.15;;;3.22;;
69970;SDS011;57301;50.328;8.542;2022-12-24T08:35:58;17.27;;;3.03;;
69970;SDS011;57301;50.328;8.542;2022-12-24T08:38:27;20.33;;;4.07;;
69970;SDS011;57301;50.328;8.542;2022-12-24T08:40:53;14.20;;;4.07;;
69970;SDS011;57301;50.328;8.542;2022-12-24T08:43:21;17.38;;;4.80;;
69970;SDS011;57301;50.328;8.542;2022-12-24T08:45:48;16.17;;;3.40;;
69970;SDS011;57301;50.328;8.542;2022-12-24T08:48:15;17.00;;;3.10;;
69970;SDS011;57301;50.328;8.542;2022-12-24T08:50:42;16.55;;;2.88;;
69970;SDS011;57301;50.328;8.542;2022-12-24T08:53:09;14.33;;;3.80;;
69970;SDS011;57301;50.328;8.542;2022-12-24T08:55:35;13.98;;;3.70;;
69970;SDS011;57301;50.328;8.542;2022-12-24T08:58:02;12.25;;;3.05;;
69970;SDS011;57301;50.328;8.542;2022-12-24T09:00:29;11.45;;;2.55;;
69970;SDS011;57301;50.328;8.542;2022-12-24T09:02:56;13.90;;;3.10;;
69970;SDS011;57301;50.328;8.542;2022-12-24T09:05:22;10.30;;;2.33;;
69970;SDS011;57301;50.328;8.542;2022-12-24T09:07:51;12.70;;;2.80;;
69970;SDS011;57301;50.328;8.542;2022-12-24T09:10:17;12.45;;;2.80;;
69970;SDS011;57301;50.328;8.542;2022-12-24T09:12:44;15.50;;;2.60;;
69970;SDS011;57301;50.328;8.542;2022-12-24T09:15:10;14.20;;;3.10;;
69970;SDS011;57301;50.328;8.542;2022-12-24T09:17:37;11.60;;;3.03;;
69970;SDS011;57301;50.328;8.542;2022-12-24T09:20:03;12.93;;;3.38;;
69970;SDS011;57301;50.328;8.542;2022-12-24T09:22:35;10.85;;;3.05;;
69970;SDS011;57301;50.328;8.542;2022-12-24T09:25:03;11.55;;;2.75;;
69970;SDS011;57301;50.328;8.542;2022-12-24T09:27:31;10.68;;;2.72;;
69970;SDS011;57301;50.328;8.542;2022-12-24T09:29:58;9.87;;;2.77;;
69970;SDS011;57301;50.328;8.542;2022-12-24T09:32:24;8.50;;;2.22;;
69970;SDS011;57301;50.328;8.542;2022-12-24T09:34:51;11.38;;;3.05;;
69970;SDS011;57301;50.328;8.542;2022-12-24T09:37:17;13.48;;;3.33;;
69970;SDS011;57301;50.328;8.542;2022-12-24T09:39:44;10.57;;;3.20;;
69970;SDS011;57301;50.328;8.542;2022-12-24T09:44:44;9.70;;;2.28;;
69970;SDS011;57301;50.328;8.542;2022-12-24T09:47:46;9.40;;;2.20;;
69970;SDS011;57301;50.328;8.542;2022-12-24T09:50:24;9.48;;;2.92;;
69970;SDS011;57301;50.328;8.542;2022-12-24T09:52:59;12.05;;;3.78;;
69970;SDS011;57301;50.328;8.542;2022-12-24T09:55:31;14.20;;;4.93;;
69970;SDS011;57301;50.328;8.542;2022-12-24T09:58:03;8.93;;;2.65;;
69970;SDS011;57301;50.328;8.542;2022-12-24T10:00:34;8.77;;;2.25;;
69970;SDS011;57301;50.328;8.542;2022-12-24T10:03:10;10.48;;;2.47;;
69970;SDS011;57301;50.328;8.542;2022-12-24T10:05:43;7.93;;;2.20;;
69970;SDS011;57301;50.328;8.542;2022-12-24T10:10:52;12.45;;;2.22;;
69970;SDS011;57301;50.328;8.542;2022-12-24T10:13:24;8.27;;;2.15;;
69970;SDS011;57301;50.328;8.542;2022-12-24T10:16:00;8.18;;;2.40;;
69970;SDS011;57301;50.328;8.542;2022-12-24T10:18:53;7.40;;;2.08;;
69970;SDS011;57301;50.328;8.542;2022-12-24T10:29:12;10.45;;;2.88;;
69970;SDS011;57301;50.328;8.542;2022-12-24T10:32:00;8.38;;;2.33;;
69970;SDS011;57301;50.328;8.542;2022-12-24T10:34:42;11.17;;;2.57;;
69970;SDS011;57301;50.328;8.542;2022-12-24T10:37:24;12.10;;;2.63;;
69970;SDS011;57301;50.328;8.542;2022-12-24T10:39:57;12.13;;;3.25;;
69970;SDS011;57301;50.328;8.542;2022-12-24T10:42:27;11.32;;;2.70;;
69970;SDS011;57301;50.328;8.542;2022-12-24T10:45:17;11.52;;;3.53;;
69970;SDS011;57301;50.328;8.542;2022-12-24T10:47:47;9.93;;;2.60;;
69970;SDS011;57301;50.328;8.542;2022-12-24T10:50:21;8.75;;;2.10;;
69970;SDS011;57301;50.328;8.542;2022-12-24T10:52:56;12.18;;;3.58;;
69970;SDS011;57301;50.328;8.542;2022-12-24T10:55:29;14.65;;;4.18;;
69970;SDS011;57301;50.328;8.542;2022-12-24T10:58:00;8.82;;;2.55;;
69970;SDS011;57301;50.328;8.542;2022-12-24T11:00:29;10.97;;;2.60;;
69970;SDS011;57301;50.328;8.542;2022-12-24T11:05:37;14.63;;;4.47;;
69970;SDS011;57301;50.328;8.542;2022-12-24T11:10:39;15.60;;;4.70;;
69970;SDS011;57301;50.328;8.542;2022-12-24T11:13:21;9.63;;;2.57;;
69970;SDS011;57301;50.328;8.542;2022-12-24T11:16:17;13.25;;;3.08;;
69970;SDS011;57301;50.328;8.542;2022-12-24T11:18:52;11.65;;;2.88;;
69970;SDS011;57301;50.328;8.542;2022-12-24T11:21:34;11.57;;;2.53;;
69970;SDS011;57301;50.328;8.542;2022-12-24T11:24:24;13.55;;;2.67;;
69970;SDS011;57301;50.328;8.542;2022-12-24T11:26:53;10.07;;;2.70;;
69970;SDS011;57301;50.328;8.542;2022-12-24T11:29:23;11.32;;;2.60;;
69970;SDS011;57301;50.328;8.542;2022-12-24T11:31:51;11.73;;;2.55;;
69970;SDS011;57301;50.328;8.542;2022-12-24T11:34:35;13.02;;;2.55;;
69970;SDS011;57301;50.328;8.542;2022-12-24T11:37:08;7.43;;;2.45;;
69970;SDS011;57301;50.328;8.542;2022-12-24T11:39:42;10.97;;;2.27;;
69970;SDS011;57301;50.328;8.542;2022-12-24T11:42:23;10.43;;;2.67;;
69970;SDS011;57301;50.328;8.542;2022-12-24T11:44:53;11.63;;;2.55;;
69970;SDS011;57301;50.328;8.542;2022-12-24T11:47:31;11.35;;;3.10;;
69970;SDS011;57301;50.328;8.542;2022-12-24T11:50:18;18.08;;;4.97;;
69970;SDS011;57301;50.328;8.542;2022-12-24T11:53:35;11.57;;;2.53;;
69970;SDS011;57301;50.328;8.542;2022-12-24T11:55:52;11.32;;;2.97;;
69970;SDS011;57301;50.328;8.542;2022-12-24T11:58:43;16.13;;;4.47;;
69970;SDS011;57301;50.328;8.542;2022-12-24T12:03:42;12.57;;;3.30;;
69970;SDS011;57301;50.328;8.542;2022-12-24T12:06:19;9.73;;;2.80;;
69970;SDS011;57301;50.328;8.542;2022-12-24T12:09:04;9.88;;;2.30;;
69970;SDS011;57301;50.328;8.542;2022-12-24T12:11:32;8.40;;;2.42;;
69970;SDS011;57301;50.328;8.542;2022-12-24T12:14:00;8.65;;;2.08;;
69970;SDS011;57301;50.328;8.542;2022-12-24T12:16:31;11.05;;;2.30;;
69970;SDS011;57301;50.328;8.542;2022-12-24T12:19:30;9.87;;;2.43;;
69970;SDS011;57301;50.328;8.542;2022-12-24T12:22:02;10.23;;;3.33;;
69970;SDS011;57301;50.328;8.542;2022-12-24T12:24:35;14.15;;;3.80;;
69970;SDS011;57301;50.328;8.542;2022-12-24T12:29:59;12.82;;;3.03;;
69970;SDS011;57301;50.328;8.542;2022-12-24T12:32:33;9.53;;;2.97;;
69970;SDS011;57301;50.328;8.542;2022-12-24T12:35:18;10.65;;;3.05;;
69970;SDS011;57301;50.328;8.542;2022-12-24T12:37:52;11.63;;;2.97;;
69970;SDS011;57301;50.328;8.542;2022-12-24T12:40:25;13.13;;;2.80;;
69970;SDS011;57301;50.328;8.542;2022-12-24T12:43:10;8.73;;;2.10;;
69970;SDS011;57301;50.328;8.542;2022-12-24T12:46:01;8.87;;;2.37;;
69970;SDS011;57301;50.328;8.542;2022-12-24T12:49:24;10.32;;;2.53;;
69970;SDS011;57301;50.328;8.542;2022-12-24T12:51:46;11.70;;;3.35;;
69970;SDS011;57301;50.328;8.542;2022-12-24T12:57:14;11.07;;;2.65;;
69970;SDS011;57301;50.328;8.542;2022-12-24T12:59:50;10.97;;;3.00;;
69970;SDS011;57301;50.328;8.542;2022-12-24T13:11:03;13.60;;;3.30;;
69970;SDS011;57301;50.328;8.542;2022-12-24T13:17:01;10.30;;;3.20;;
69970;SDS011;57301;50.328;8.542;2022-12-24T13:22:24;45.35;;;11.90;;
69970;SDS011;57301;50.328;8.542;2022-12-24T13:24:51;45.22;;;11.63;;
69970;SDS011;57301;50.328;8.542;2022-12-24T13:27:20;30.93;;;8.40;;
69970;SDS011;57301;50.328;8.542;2022-12-24T13:29:52;38.70;;;13.77;;
69970;SDS011;57301;50.328;8.542;2022-12-24T13:34:56;17.98;;;5.90;;
69970;SDS011;57301;50.328;8.542;2022-12-24T13:40:00;10.30;;;3.00;;
69970;SDS011;57301;50.328;8.542;2022-12-24T13:42:54;12.35;;;3.85;;
69970;SDS011;57301;50.328;8.542;2022-12-24T13:50:37;14.27;;;5.57;;
69970;SDS011;57301;50.328;8.542;2022-12-24T13:53:04;15.40;;;5.87;;
69970;SDS011;57301;50.328;8.542;2022-12-24T13:55:58;11.52;;;3.85;;
69970;SDS011;57301;50.328;8.542;2022-12-24T13:58:40;11.25;;;3.53;;
69970;SDS011;57301;50.328;8.542;2022-12-24T14:01:12;12.40;;;3.10;;
69970;SDS011;57301;50.328;8.542;2022-12-24T14:03:42;12.02;;;3.60;;
69970;SDS011;57301;50.328;8.542;2022-12-24T14:06:22;11.70;;;3.17;;
69970;SDS011;57301;50.328;8.542;2022-12-24T14:08:53;10.98;;;2.80;;
69970;SDS011;57301;50.328;8.542;2022-12-24T14:11:24;12.75;;;3.28;;
69970;SDS011;57301;50.328;8.542;2022-12-24T14:14:19;12.50;;;4.57;;
69970;SDS011;57301;50.328;8.542;2022-12-24T14:17:01;13.70;;;5.75;;
69970;SDS011;57301;50.328;8.542;2022-12-24T14:19:43;16.07;;;6.07;;
69970;SDS011;57301;50.328;8.542;2022-12-24T14:22:25;17.25;;;6.25;;
69970;SDS011;57301;50.328;8.542;2022-12-24T14:25:18;18.20;;;6.18;;
69970;SDS011;57301;50.328;8.542;2022-12-24T14:27:52;12.68;;;4.00;;
69970;SDS011;57301;50.328;8.542;2022-12-24T14:30:25;18.02;;;5.90;;
69970;SDS011;57301;50.328;8.542;2022-12-24T14:32:53;16.50;;;6.43;;
69970;SDS011;57301;50.328;8.542;2022-12-24T14:35:26;21.15;;;10.63;;
69970;SDS011;57301;50.328;8.542;2022-12-24T14:38:00;26.80;;;10.18;;
69970;SDS011;57301;50.328;8.542;2022-12-24T14:40:30;21.70;;;8.98;;
69970;SDS011;57301;50.328;8.542;2022-12-24T14:45:40;22.20;;;8.67;;
69970;SDS011;57301;50.328;8.542;2022-12-24T14:48:34;20.63;;;8.13;;
69970;SDS011;57301;50.328;8.542;2022-12-24T14:56:33;12.27;;;5.20;;
69970;SDS011;57301;50.328;8.542;2022-12-24T14:58:59;14.67;;;6.63;;
69970;SDS011;57301;50.328;8.542;2022-12-24T15:01:39;16.23;;;5.82;;
69970;SDS011;57301;50.328;8.542;2022-12-24T15:06:36;17.70;;;6.45;;
69970;SDS011;57301;50.328;8.542;2022-12-24T15:09:05;14.35;;;4.80;;
69970;SDS011;57301;50.328;8.542;2022-12-24T15:11:40;17.10;;;4.77;;
69970;SDS011;57301;50.328;8.542;2022-12-24T15:14:09;20.00;;;5.50;;
69970;SDS011;57301;50.328;8.542;2022-12-24T15:16:37;21.80;;;6.18;;
69970;SDS011;57301;50.328;8.542;2022-12-24T15:19:05;19.80;;;5.32;;
69970;SDS011;57301;50.328;8.542;2022-12-24T15:21:45;25.25;;;8.07;;
69970;SDS011;57301;50.328;8.542;2022-12-24T15:24:28;19.20;;;5.47;;
69970;SDS011;57301;50.328;8.542;2022-12-24T15:27:00;20.92;;;7.07;;
69970;SDS011;57301;50.328;8.542;2022-12-24T15:29:29;21.25;;;7.30;;
69970;SDS011;57301;50.328;8.542;2022-12-24T15:31:58;14.68;;;4.00;;
69970;SDS011;57301;50.328;8.542;2022-12-24T15:34:36;15.52;;;3.78;;
69970;SDS011;57301;50.328;8.542;2022-12-24T15:39:37;14.57;;;6.22;;
69970;SDS011;57301;50.328;8.542;2022-12-24T15:42:05;12.60;;;5.78;;
69970;SDS011;57301;50.328;8.542;2022-12-24T15:44:40;20.90;;;8.45;;
69970;SDS011;57301;50.328;8.542;2022-12-24T15:47:16;14.13;;;5.43;;
69970;SDS011;57301;50.328;8.542;2022-12-24T15:49:47;16.87;;;6.20;;
69970;SDS011;57301;50.328;8.542;2022-12-24T15:52:16;24.48;;;8.05;;
69970;SDS011;57301;50.328;8.542;2022-12-24T15:54:46;19.33;;;7.00;;
69970;SDS011;57301;50.328;8.542;2022-12-24T15:57:24;19.77;;;9.40;;
69970;SDS011;57301;50.328;8.542;2022-12-24T15:59:55;25.00;;;9.18;;
69970;SDS011;57301;50.328;8.542;2022-12-24T16:02:33;30.70;;;10.50;;
69970;SDS011;57301;50.328;8.542;2022-12-24T16:10:38;23.15;;;7.95;;
69970;SDS011;57301;50.328;8.542;2022-12-24T16:13:27;19.98;;;8.40;;
69970;SDS011;57301;50.328;8.542;2022-12-24T16:18:37;14.68;;;5.05;;
69970;SDS011;57301;50.328;8.542;2022-12-24T16:21:09;30.17;;;12.90;;
69970;SDS011;57301;50.328;8.542;2022-12-24T16:23:45;23.77;;;11.38;;
69970;SDS011;57301;50.328;8.542;2022-12-24T16:26:13;29.42;;;12.75;;
69970;SDS011;57301;50.328;8.542;2022-12-24T16:28:40;27.00;;;12.23;;
69970;SDS011;57301;50.328;8.542;2022-12-24T16:31:06;27.40;;;11.27;;
69970;SDS011;57301;50.328;8.542;2022-12-24T16:33:33;32.17;;;12.73;;
69970;SDS011;57301;50.328;8.542;2022-12-24T16:36:00;27.92;;;9.90;;
69970;SDS011;57301;50.328;8.542;2022-12-24T16:38:26;23.58;;;9.40;;
69970;SDS011;57301;50.328;8.542;2022-12-24T16:41:12;17.33;;;5.63;;